createdAt,value
2023-08-09T06:23:04.673Z,2.55
2023-08-09T06:26:07.341Z,2.60
2023-08-09T06:29:10.393Z,3.37
2023-08-09T06:32:13.061Z,2.92
2023-08-09T06:35:15.530Z,3.65
2023-08-09T06:38:18.132Z,3.97
2023-08-09T06:41:20.482Z,4.85
2023-08-09T06:44:23.091Z,4.60
2023-08-09T06:47:25.430Z,4.07
2023-08-09T06:50:28.715Z,3.28
2023-08-09T06:53:31.237Z,3.22
2023-08-09T06:56:34.080Z,2.65
2023-08-09T06:59:36.379Z,2.30
2023-08-09T07:02:39.002Z,2.97
2023-08-09T07:05:45.042Z,2.25
2023-08-09T07:08:47.864Z,2.15
2023-08-09T07:11:50.191Z,2.12
2023-08-09T07:14:53.913Z,2.30
2023-08-09T07:17:56.256Z,2.40
2023-08-09T07:20:59.084Z,2.58
2023-08-09T07:24:01.298Z,1.85
2023-08-09T07:27:04.505Z,1.95
2023-08-09T07:30:07.421Z,1.98
2023-08-09T07:33:10.010Z,2.83
2023-08-09T07:36:12.366Z,1.52
2023-08-09T07:39:14.906Z,1.50
2023-08-09T07:42:17.688Z,1.20
2023-08-09T07:45:21.816Z,1.15
2023-08-09T07:48:25.828Z,1.40
2023-08-09T07:51:28.660Z,1.40
2023-08-09T07:54:30.932Z,1.30
2023-08-09T07:57:34.383Z,1.25
2023-08-09T08:00:49.580Z,1.42
2023-08-09T08:03:53.094Z,1.60
2023-08-09T08:06:56.576Z,1.50
2023-08-09T08:09:59.566Z,1.30
2023-08-09T08:13:02.093Z,1.55
2023-08-09T08:16:05.528Z,1.58
2023-08-09T08:19:09.643Z,1.60
2023-08-09T08:22:12.386Z,1.33
2023-08-09T08:25:15.686Z,1.33
2023-08-09T08:28:18.291Z,1.48
2023-08-09T08:31:21.463Z,1.35
2023-08-09T08:34:24.148Z,1.35
2023-08-09T08:37:27.280Z,1.50
2023-08-09T08:40:32.420Z,1.20
2023-08-09T08:43:35.939Z,1.15
2023-08-09T08:46:39.662Z,1.10
2023-08-09T08:49:49.682Z,1.20
2023-08-09T08:52:53.063Z,1.20
2023-08-09T08:55:56.730Z,1.37
2023-08-09T08:59:00.324Z,1.35
2023-08-09T09:02:03.977Z,1.40
2023-08-09T09:05:10.252Z,1.17
2023-08-09T09:08:14.453Z,1.20
2023-08-09T09:11:19.622Z,1.10
2023-08-09T09:14:22.628Z,1.37
2023-08-09T09:17:26.902Z,1.30
2023-08-09T09:20:31.271Z,1.42
2023-08-09T09:23:34.602Z,1.30
2023-08-09T09:26:40.768Z,1.25
2023-08-09T09:29:43.291Z,1.48
2023-08-09T09:32:59.861Z,1.40
2023-08-09T09:36:04.158Z,1.40
2023-08-09T09:39:21.363Z,1.10
2023-08-09T09:42:35.229Z,1.10
2023-08-09T09:45:38.619Z,1.50
2023-08-09T09:48:46.462Z,1.10
2023-08-09T09:51:50.508Z,1.02
2023-08-09T09:54:56.605Z,1.30
2023-08-09T09:57:59.563Z,0.80
2023-08-09T10:01:04.785Z,0.90
2023-08-09T10:04:08.439Z,0.93
2023-08-09T10:07:12.177Z,0.98
2023-08-09T10:10:17.555Z,0.90
2023-08-09T10:13:22.725Z,0.70
2023-08-09T10:16:27.445Z,0.88
2023-08-09T10:19:30.710Z,0.62
2023-08-09T10:22:36.982Z,0.85
2023-08-09T10:25:49.231Z,0.85
2023-08-09T10:28:51.769Z,0.60
2023-08-09T10:32:06.417Z,1.10
2023-08-09T10:35:16.582Z,0.75
2023-08-09T10:38:48.173Z,0.93
2023-08-09T10:42:01.730Z,0.88
2023-08-09T10:45:05.952Z,0.90
2023-08-09T10:48:23.494Z,0.85
2023-08-09T10:51:26.056Z,0.70
2023-08-09T10:54:28.712Z,0.85
2023-08-09T10:57:42.247Z,0.90
2023-08-09T11:00:47.935Z,1.00
2023-08-09T11:03:50.667Z,0.77
2023-08-09T11:06:53.208Z,0.95
2023-08-09T11:09:55.864Z,0.90
2023-08-09T11:12:58.466Z,0.85
2023-08-09T11:16:07.970Z,0.95
2023-08-09T11:19:32.438Z,0.73
2023-08-09T11:22:37.610Z,0.70
2023-08-09T11:25:40.540Z,0.73
2023-08-09T11:28:42.882Z,0.65
2023-08-09T11:31:47.593Z,1.00
2023-08-09T11:34:50.109Z,0.73
2023-08-09T11:37:53.613Z,0.70
2023-08-09T11:40:55.944Z,1.00
2023-08-09T11:43:58.452Z,0.90
2023-08-09T11:47:03.853Z,1.20
2023-08-09T11:50:26.094Z,1.27
2023-08-09T11:53:28.400Z,0.60
2023-08-09T11:56:36.643Z,0.80
2023-08-09T11:59:40.613Z,0.80
2023-08-09T12:02:46.410Z,0.70
2023-08-09T12:05:56.066Z,0.60
2023-08-09T12:08:59.208Z,0.98
2023-08-09T12:12:06.422Z,0.80
2023-08-09T12:15:10.465Z,0.68
2023-08-09T12:18:12.986Z,0.70
2023-08-09T12:21:15.228Z,0.70
2023-08-09T12:24:17.768Z,0.73
2023-08-09T12:27:22.930Z,0.77
2023-08-09T12:30:25.578Z,0.70
2023-08-09T12:33:28.470Z,0.73
2023-08-09T12:36:31.871Z,0.70
2023-08-09T12:39:35.843Z,0.90
2023-08-09T12:42:38.419Z,0.82
2023-08-09T12:45:41.974Z,0.70
2023-08-09T12:48:44.582Z,1.00
2023-08-09T12:51:47.213Z,0.88
2023-08-09T12:54:50.599Z,0.88
2023-08-09T12:57:52.863Z,0.80
2023-08-09T13:00:56.127Z,0.70
2023-08-09T13:03:58.479Z,0.75
2023-08-09T13:07:01.332Z,0.85
2023-08-09T13:10:03.908Z,0.90
2023-08-09T13:13:06.437Z,0.90
2023-08-09T13:16:09.325Z,0.80
2023-08-09T13:19:12.100Z,0.80
2023-08-09T13:22:14.673Z,0.65
2023-08-09T13:25:17.578Z,1.05
2023-08-09T13:28:20.001Z,0.70
2023-08-09T13:31:22.763Z,1.02
2023-08-09T13:34:25.023Z,0.90
2023-08-09T13:37:30.227Z,0.60
2023-08-09T13:40:33.435Z,0.70
2023-08-09T13:43:36.913Z,0.60
2023-08-09T13:46:39.376Z,1.10
2023-08-09T13:49:42.187Z,0.80
2023-08-09T13:52:44.701Z,0.62
2023-08-09T13:55:47.652Z,0.93
2023-08-09T13:58:49.982Z,0.82
2023-08-09T14:01:53.716Z,0.80
2023-08-09T14:04:56.637Z,0.88
2023-08-09T14:07:59.419Z,0.82
2023-08-09T14:11:02.825Z,0.80
2023-08-09T14:14:05.107Z,0.95
2023-08-09T14:17:07.587Z,0.90
2023-08-09T14:20:20.748Z,0.82
2023-08-09T14:23:23.560Z,0.95
2023-08-09T14:26:26.148Z,0.70
2023-08-09T14:29:29.361Z,1.15
2023-08-09T14:32:31.703Z,0.82
2023-08-09T14:35:34.277Z,1.10
2023-08-09T14:38:36.586Z,0.75
2023-08-09T14:41:39.250Z,0.75
2023-08-09T14:44:41.543Z,0.80
2023-08-09T14:47:44.401Z,1.00
2023-08-09T14:50:46.976Z,0.93
2023-08-09T14:53:49.517Z,1.00
2023-08-09T14:56:51.781Z,0.90
2023-08-09T14:59:54.300Z,1.35
2023-08-09T15:02:56.781Z,0.88
2023-08-09T15:05:59.356Z,0.82
2023-08-09T15:09:01.575Z,0.77
2023-08-09T15:12:06.214Z,1.10
2023-08-09T15:15:08.724Z,0.90
2023-08-09T15:18:11.297Z,0.82
2023-08-09T15:21:13.589Z,0.80
2023-08-09T15:24:16.188Z,1.08
2023-08-09T15:27:20.222Z,0.95
2023-08-09T15:30:25.212Z,0.70
2023-08-09T15:33:27.577Z,0.82
2023-08-09T15:36:30.115Z,0.90
2023-08-09T15:39:34.234Z,0.93
2023-08-09T15:42:37.549Z,0.90
2023-08-09T15:45:40.172Z,1.35
2023-08-09T15:48:42.813Z,0.90
2023-08-09T15:51:45.066Z,1.25
2023-08-09T15:54:47.971Z,0.90
2023-08-09T15:57:50.916Z,0.90
2023-08-09T16:00:55.731Z,1.40
2023-08-09T16:03:59.918Z,1.08
2023-08-09T16:07:02.328Z,1.33
2023-08-09T16:10:07.480Z,1.12
2023-08-09T16:13:09.777Z,0.90
2023-08-09T16:16:24.113Z,1.02
2023-08-09T16:22:33.600Z,1.00
2023-08-09T16:25:35.978Z,1.10
2023-08-09T16:28:38.517Z,0.95
2023-08-09T16:31:40.857Z,0.93
2023-08-09T16:34:43.652Z,1.00
2023-08-09T16:37:45.864Z,1.08
2023-08-09T16:40:48.377Z,1.25
2023-08-09T16:43:53.115Z,1.02
2023-08-09T16:46:59.639Z,1.10
2023-08-09T16:50:01.931Z,1.10
2023-08-09T16:53:05.411Z,1.27
2023-08-09T16:56:07.709Z,1.20
2023-08-09T16:59:10.362Z,0.90
2023-08-09T17:02:13.398Z,1.23
2023-08-09T17:05:19.898Z,1.50
2023-08-09T17:08:22.198Z,1.20
2023-08-09T17:11:24.732Z,1.17
2023-08-09T17:14:27.005Z,1.52
2023-08-09T17:17:30.977Z,1.12
2023-08-09T17:20:34.906Z,1.20
2023-08-09T17:23:39.990Z,1.30
2023-08-09T17:26:44.098Z,1.35
2023-08-09T17:29:46.817Z,1.30
2023-08-09T17:32:50.415Z,1.20
2023-08-09T17:35:52.964Z,1.48
2023-08-09T17:38:56.265Z,1.35
2023-08-09T17:41:58.842Z,1.25
2023-08-09T17:45:04.590Z,1.20
2023-08-09T17:48:07.923Z,1.30
2023-08-09T17:51:10.288Z,1.45
2023-08-09T17:54:12.894Z,1.12
2023-08-09T17:57:15.166Z,1.20
2023-08-09T18:00:20.911Z,1.37
2023-08-09T18:03:24.835Z,1.37
2023-08-09T18:06:27.283Z,1.67
2023-08-09T18:09:29.880Z,1.62
2023-08-09T18:12:32.127Z,1.98
2023-08-09T18:15:34.714Z,1.65
2023-08-09T18:18:36.926Z,1.80
2023-08-09T18:21:39.578Z,1.50
2023-08-09T18:24:41.815Z,1.50
2023-08-09T18:27:44.324Z,1.52
2023-08-09T18:30:46.823Z,1.80
2023-08-09T18:33:50.774Z,1.80
2023-08-09T18:36:53.626Z,2.00
2023-08-09T18:39:56.131Z,1.80
2023-08-09T18:42:58.861Z,2.00
2023-08-09T18:46:03.435Z,1.87
2023-08-09T18:49:05.778Z,2.00
2023-08-09T18:52:08.340Z,1.87
2023-08-09T18:55:11.095Z,1.80
2023-08-09T18:58:14.029Z,1.87
2023-08-09T19:01:16.383Z,2.15
2023-08-09T19:04:19.688Z,2.33
2023-08-09T19:07:21.864Z,2.20
2023-08-09T19:10:24.661Z,1.95
2023-08-09T19:13:26.847Z,1.90
2023-08-09T19:16:29.463Z,2.40
2023-08-09T19:19:31.658Z,1.80
2023-08-09T19:22:35.124Z,2.30
2023-08-09T19:25:37.494Z,2.15
2023-08-09T19:28:40.672Z,2.15
2023-08-09T19:31:43.388Z,2.12
2023-08-09T19:34:47.097Z,1.90
2023-08-09T19:37:49.731Z,2.15
2023-08-09T19:40:52.288Z,1.67
2023-08-09T19:43:56.183Z,1.35
2023-08-09T19:47:02.316Z,1.33
2023-08-09T19:50:08.888Z,1.80
2023-08-09T19:53:11.452Z,1.77
2023-08-09T19:56:13.850Z,2.00
2023-08-09T19:59:16.361Z,1.95
2023-08-09T20:02:19.556Z,1.87
2023-08-09T20:05:22.330Z,1.77
2023-08-09T20:08:24.550Z,2.25
2023-08-09T20:11:27.084Z,2.33
2023-08-09T20:14:29.351Z,2.03
2023-08-09T20:17:32.619Z,1.98
2023-08-09T20:20:38.178Z,2.45
2023-08-09T20:23:40.705Z,2.15
2023-08-09T20:26:42.907Z,1.90
2023-08-09T20:29:45.450Z,2.12
2023-08-09T20:32:47.840Z,2.08
2023-08-09T20:35:50.537Z,2.10
2023-08-09T20:38:53.432Z,2.15
2023-08-09T20:41:55.993Z,1.70
2023-08-09T20:44:58.285Z,2.08
2023-08-09T20:48:00.850Z,1.87
2023-08-09T20:51:03.249Z,2.05
2023-08-09T20:54:06.314Z,1.60
2023-08-09T20:57:08.624Z,1.90
2023-08-09T21:00:14.849Z,2.10
2023-08-09T21:03:17.150Z,1.90
2023-08-09T21:06:21.261Z,1.92
2023-08-09T21:09:23.833Z,2.25
2023-08-09T21:12:26.332Z,2.03
2023-08-09T21:15:29.820Z,2.15
2023-08-09T21:18:36.239Z,2.10
2023-08-09T21:21:39.001Z,2.78
2023-08-09T21:24:41.929Z,2.28
2023-08-09T21:27:44.266Z,2.40
2023-08-09T21:30:47.413Z,2.58
2023-08-09T21:33:49.626Z,2.40
2023-08-09T21:36:52.095Z,2.00
2023-08-09T21:39:54.287Z,2.40
2023-08-09T21:42:56.749Z,2.22
2023-08-09T21:45:59.097Z,2.30
2023-08-09T21:49:01.712Z,2.10
2023-08-09T21:52:05.067Z,1.85
2023-08-09T21:55:08.145Z,1.77
2023-08-09T21:58:10.812Z,1.30
2023-08-09T22:01:13.399Z,1.40
2023-08-09T22:04:16.027Z,1.30
2023-08-09T22:07:18.401Z,1.35
2023-08-09T22:10:21.059Z,1.40
2023-08-09T22:13:24.476Z,1.30
2023-08-09T22:16:27.588Z,1.48
2023-08-09T22:19:29.912Z,1.30
2023-08-09T22:22:33.154Z,1.40
2023-08-09T22:25:35.603Z,1.40
2023-08-09T22:28:38.534Z,1.40
2023-08-09T22:31:41.197Z,1.37
2023-08-09T22:34:43.940Z,1.73
2023-08-09T22:37:46.289Z,1.17
2023-08-09T22:40:48.910Z,1.60
2023-08-09T22:43:51.647Z,1.40
2023-08-09T22:46:55.610Z,1.42
2023-08-09T22:50:00.666Z,1.40
2023-08-09T22:53:03.295Z,1.40
2023-08-09T22:56:05.816Z,1.30
2023-08-09T22:59:08.381Z,1.20
2023-08-09T23:02:10.733Z,1.50
2023-08-09T23:05:13.521Z,1.73
2023-08-09T23:08:16.049Z,1.10
2023-08-09T23:11:18.695Z,1.60
2023-08-09T23:14:21.030Z,1.40
2023-08-09T23:17:25.896Z,1.30
2023-08-09T23:20:28.874Z,1.42
2023-08-09T23:23:32.031Z,1.25
2023-08-09T23:26:34.395Z,1.15
2023-08-09T23:29:36.967Z,1.60
2023-08-09T23:32:39.468Z,1.33
2023-08-09T23:35:42.011Z,1.40
2023-08-09T23:38:44.677Z,1.70
2023-08-09T23:41:47.230Z,1.65
2023-08-09T23:44:49.661Z,1.40
2023-08-09T23:47:53.258Z,1.15
2023-08-09T23:50:55.592Z,1.87
2023-08-09T23:54:01.641Z,1.40
2023-08-09T23:57:04.078Z,1.40
